Hengelo, Netherlands
Current Conditions -  °F | °C
As of 5:20 AM on Sunday 23 Nov 2014 (Local Time) from EDDG Reporting Station
Clear Clear  
Wind Chill: 45°   Ceiling: Unl
Heat Index: 45°   Visibility: 6mi
Dew Point: 43°   Wind: 3mph
Humidity: 93%   Direction: 100°E
Pressure: 30.09"   Gusts: NA
Location:  52.27°N, 6.79°E
Report Text: EDDG 230420Z 10003KT CAVOK 07/06 Q1019 NOSIG
Loading
Personal Weather Stations






























Interactive Weather Map New forecast layout! Learn more

10-Day Weather Forecast

Advertisements
Track Severe Weather on mobile